createdAt,value
2023-01-28T00:17:32.648Z,76
2023-01-28T00:27:35.005Z,76
2023-01-28T00:37:37.234Z,76
2023-01-28T00:47:39.181Z,76
2023-01-28T01:07:43.366Z,75
2023-01-28T01:27:47.735Z,75
2023-01-28T01:37:50.389Z,75
2023-01-28T01:47:52.437Z,75
2023-01-28T01:57:54.838Z,74
2023-01-28T02:07:56.533Z,74
2023-01-28T02:17:59.073Z,74
2023-01-28T02:28:00.817Z,74
2023-01-28T02:38:03.034Z,74
2023-01-28T02:48:04.800Z,74
2023-01-28T02:58:07.099Z,74
2023-01-28T03:08:08.867Z,74
2023-01-28T03:18:11.394Z,74
2023-01-28T03:28:13.647Z,73
2023-01-28T03:38:15.949Z,73
2023-01-28T03:48:18.238Z,73
2023-01-28T03:58:20.254Z,73
2023-01-28T04:08:22.713Z,73
2023-01-28T04:28:26.973Z,73
2023-01-28T04:48:30.740Z,73
2023-01-28T04:58:33.306Z,73
2023-01-28T05:08:35.357Z,73
2023-01-28T05:18:37.583Z,73
2023-01-28T05:28:39.833Z,72
2023-01-28T05:38:41.664Z,72
2023-01-28T05:48:43.957Z,72
2023-01-28T05:58:45.631Z,71
2023-01-28T06:08:47.530Z,72
2023-01-28T06:18:49.897Z,72
2023-01-28T06:28:51.729Z,72
2023-01-28T06:38:53.943Z,71
2023-01-28T06:48:56.175Z,72
2023-01-28T06:58:58.208Z,72
2023-01-28T07:09:00.096Z,72
2023-01-28T07:19:02.751Z,72
2023-01-28T07:29:04.820Z,72
2023-01-28T07:39:06.983Z,72
2023-01-28T07:49:09.277Z,71
2023-01-28T07:59:11.837Z,71
2023-01-28T08:09:14.240Z,71
2023-01-28T08:19:16.184Z,71
2023-01-28T08:29:18.823Z,71
2023-01-28T08:39:21.479Z,71
2023-01-28T08:49:23.323Z,71
2023-01-28T08:59:25.035Z,71
2023-01-28T09:09:27.174Z,71
2023-01-28T09:19:29.652Z,70
2023-01-28T09:29:32.263Z,71
2023-01-28T09:39:34.327Z,70
2023-01-28T09:49:36.036Z,71
2023-01-28T10:09:40.355Z,70
2023-01-28T10:19:42.563Z,70
2023-01-28T10:29:44.408Z,69
2023-01-28T10:39:46.320Z,68
2023-01-28T10:49:48.723Z,69
2023-01-28T10:59:50.733Z,68
2023-01-28T11:09:52.825Z,69
2023-01-28T11:19:54.524Z,68
2023-01-28T11:29:56.472Z,69
2023-01-28T11:39:59.023Z,69
2023-01-28T11:50:00.804Z,69
2023-01-28T12:00:03.168Z,68
2023-01-28T12:10:05.721Z,69
2023-01-28T12:20:07.577Z,69
2023-01-28T12:30:09.322Z,69
2023-01-28T12:40:11.838Z,68
2023-01-28T12:50:14.190Z,68
2023-01-28T13:00:16.274Z,68
2023-01-28T13:10:18.275Z,68
2023-01-28T13:20:20.180Z,68
2023-01-28T13:30:22.478Z,68
2023-01-28T13:40:25.165Z,67
2023-01-28T13:50:26.897Z,67
2023-01-28T14:00:28.931Z,67
2023-01-28T14:10:31.287Z,67
2023-01-28T14:20:33.490Z,68
2023-01-28T14:30:36.001Z,68
2023-01-28T14:40:38.560Z,68
2023-01-28T14:50:40.772Z,68
2023-01-28T15:00:43.067Z,68
2023-01-28T15:10:45.385Z,68
2023-01-28T15:20:47.304Z,68
2023-01-28T15:30:49.981Z,68
2023-01-28T15:40:51.956Z,68
2023-01-28T15:50:53.957Z,68
2023-01-28T16:00:55.923Z,68
2023-01-28T16:10:58.269Z,68
2023-01-28T16:21:00.229Z,69
2023-01-28T16:31:02.882Z,69
2023-01-28T16:41:04.887Z,70
2023-01-28T16:51:07.148Z,71
2023-01-28T17:01:09.326Z,71
2023-01-28T17:11:11.462Z,72
2023-01-28T17:21:13.804Z,72
2023-01-28T17:31:16.073Z,73
2023-01-28T17:41:18.595Z,73
2023-01-28T17:51:20.506Z,74
2023-01-28T18:01:22.836Z,75
2023-01-28T18:11:24.868Z,75
2023-01-28T18:21:26.855Z,75
2023-01-28T18:31:28.642Z,76
2023-01-28T18:41:30.736Z,76
2023-01-28T18:51:33.212Z,76
2023-01-28T19:01:35.905Z,76
2023-01-28T19:11:38.256Z,77
2023-01-28T19:21:40.931Z,77
2023-01-28T19:31:43.355Z,77
2023-01-28T19:51:47.594Z,78
2023-01-28T20:01:49.543Z,78
2023-01-28T20:11:51.633Z,78
2023-01-28T20:32:13.651Z,79
2023-01-28T21:22:08.358Z,80
2023-01-28T21:42:12.598Z,80
2023-01-28T21:52:14.330Z,80
2023-01-28T22:02:16.706Z,81
2023-01-28T22:12:19.249Z,81
2023-01-28T22:42:32.901Z,81
2023-01-28T22:52:34.838Z,81
2023-01-28T23:02:37.281Z,82
2023-01-28T23:12:39.268Z,82
2023-01-28T23:32:44.237Z,82
